sensor_id;sensor_type;location;lat;lon;timestamp;temperature;humidity
17148;DHT22;8689;47.364;8.796;2023-08-12T00:01:30;18.50;99.90
17148;DHT22;8689;47.364;8.796;2023-08-12T00:03:59;18.40;99.90
17148;DHT22;8689;47.364;8.796;2023-08-12T00:06:27;18.40;99.90
17148;DHT22;8689;47.364;8.796;2023-08-12T00:08:54;18.30;99.90
17148;DHT22;8689;47.364;8.796;2023-08-12T00:11:22;18.40;99.90
17148;DHT22;8689;47.364;8.796;2023-08-12T00:13:51;18.40;99.90
17148;DHT22;8689;47.364;8.796;2023-08-12T00:16:18;18.40;99.90
17148;DHT22;8689;47.364;8.796;2023-08-12T00:18:46;18.40;99.90
17148;DHT22;8689;47.364;8.796;2023-08-12T00:21:15;18.40;99.90
17148;DHT22;8689;47.364;8.796;2023-08-12T00:23:42;18.40;99.90
17148;DHT22;8689;47.364;8.796;2023-08-12T00:26:10;18.40;99.90
17148;DHT22;8689;47.364;8.796;2023-08-12T00:28:39;18.40;99.90
17148;DHT22;8689;47.364;8.796;2023-08-12T00:31:06;18.40;99.90
17148;DHT22;8689;47.364;8.796;2023-08-12T00:33:34;18.40;99.90
17148;DHT22;8689;47.364;8.796;2023-08-12T00:36:01;18.30;99.90
17148;DHT22;8689;47.364;8.796;2023-08-12T00:38:30;18.20;99.90
17148;DHT22;8689;47.364;8.796;2023-08-12T00:40:57;18.20;99.90
17148;DHT22;8689;47.364;8.796;2023-08-12T00:43:25;18.10;99.90
17148;DHT22;8689;47.364;8.796;2023-08-12T00:45:53;18.10;99.90
17148;DHT22;8689;47.364;8.796;2023-08-12T00:48:20;18.00;99.90
17148;DHT22;8689;47.364;8.796;2023-08-12T00:50:49;18.00;99.90
17148;DHT22;8689;47.364;8.796;2023-08-12T00:53:17;18.00;99.90
17148;DHT22;8689;47.364;8.796;2023-08-12T00:55:46;18.00;99.90
17148;DHT22;8689;47.364;8.796;2023-08-12T00:58:14;17.90;99.90
17148;DHT22;8689;47.364;8.796;2023-08-12T01:00:42;17.90;99.90
17148;DHT22;8689;47.364;8.796;2023-08-12T01:03:09;17.90;99.90
17148;DHT22;8689;47.364;8.796;2023-08-12T01:05:38;17.90;99.90
17148;DHT22;8689;47.364;8.796;2023-08-12T01:08:06;17.80;99.90
17148;DHT22;8689;47.364;8.796;2023-08-12T01:10:35;17.90;99.90
17148;DHT22;8689;47.364;8.796;2023-08-12T01:13:16;17.80;99.90
17148;DHT22;8689;47.364;8.796;2023-08-12T01:15:49;17.80;99.90
17148;DHT22;8689;47.364;8.796;2023-08-12T01:18:20;17.90;99.90
17148;DHT22;8689;47.364;8.796;2023-08-12T01:20:49;17.80;99.90
17148;DHT22;8689;47.364;8.796;2023-08-12T01:23:19;17.70;99.90
17148;DHT22;8689;47.364;8.796;2023-08-12T01:25:47;17.70;99.90
17148;DHT22;8689;47.364;8.796;2023-08-12T01:28:15;17.60;99.90
17148;DHT22;8689;47.364;8.796;2023-08-12T01:30:47;17.60;99.90
17148;DHT22;8689;47.364;8.796;2023-08-12T01:33:21;17.70;99.90
17148;DHT22;8689;47.364;8.796;2023-08-12T01:35:53;17.70;99.90
17148;DHT22;8689;47.364;8.796;2023-08-12T01:38:24;17.60;99.90
17148;DHT22;8689;47.364;8.796;2023-08-12T01:40:54;17.50;99.90
17148;DHT22;8689;47.364;8.796;2023-08-12T01:43:22;17.50;99.90
17148;DHT22;8689;47.364;8.796;2023-08-12T01:45:50;17.50;99.90
17148;DHT22;8689;47.364;8.796;2023-08-12T01:48:17;17.50;99.90
17148;DHT22;8689;47.364;8.796;2023-08-12T01:50:49;17.50;99.90
17148;DHT22;8689;47.364;8.796;2023-08-12T01:53:16;17.50;99.90
17148;DHT22;8689;47.364;8.796;2023-08-12T01:55:45;17.50;99.90
17148;DHT22;8689;47.364;8.796;2023-08-12T01:58:12;17.50;99.90
17148;DHT22;8689;47.364;8.796;2023-08-12T02:00:40;17.50;99.90
17148;DHT22;8689;47.364;8.796;2023-08-12T02:03:07;17.40;99.90
17148;DHT22;8689;47.364;8.796;2023-08-12T02:05:35;17.40;99.90
17148;DHT22;8689;47.364;8.796;2023-08-12T02:08:03;17.40;99.90
17148;DHT22;8689;47.364;8.796;2023-08-12T02:10:30;17.50;99.90
17148;DHT22;8689;47.364;8.796;2023-08-12T02:12:59;17.50;99.90
17148;DHT22;8689;47.364;8.796;2023-08-12T02:15:27;17.50;99.90
17148;DHT22;8689;47.364;8.796;2023-08-12T02:17:54;17.50;99.90
17148;DHT22;8689;47.364;8.796;2023-08-12T02:20:22;17.50;99.90
17148;DHT22;8689;47.364;8.796;2023-08-12T02:22:49;17.50;99.90
17148;DHT22;8689;47.364;8.796;2023-08-12T02:25:16;17.50;99.90
17148;DHT22;8689;47.364;8.796;2023-08-12T02:27:44;17.50;99.90
17148;DHT22;8689;47.364;8.796;2023-08-12T02:30:14;17.40;99.90
17148;DHT22;8689;47.364;8.796;2023-08-12T02:32:41;17.40;99.90
17148;DHT22;8689;47.364;8.796;2023-08-12T02:35:09;17.50;99.90
17148;DHT22;8689;47.364;8.796;2023-08-12T02:37:36;17.50;99.90
17148;DHT22;8689;47.364;8.796;2023-08-12T02:40:05;17.60;99.90
17148;DHT22;8689;47.364;8.796;2023-08-12T02:42:33;17.60;99.90
17148;DHT22;8689;47.364;8.796;2023-08-12T02:45:00;17.70;99.90
17148;DHT22;8689;47.364;8.796;2023-08-12T02:47:29;17.60;99.90
17148;DHT22;8689;47.364;8.796;2023-08-12T02:49:57;17.60;99.90
17148;DHT22;8689;47.364;8.796;2023-08-12T02:52:24;17.60;99.90
17148;DHT22;8689;47.364;8.796;2023-08-12T02:54:52;17.60;99.90
17148;DHT22;8689;47.364;8.796;2023-08-12T02:57:20;17.70;99.90
17148;DHT22;8689;47.364;8.796;2023-08-12T02:59:48;17.60;99.90
17148;DHT22;8689;47.364;8.796;2023-08-12T03:02:16;17.60;99.90
17148;DHT22;8689;47.364;8.796;2023-08-12T03:04:46;17.60;99.90
17148;DHT22;8689;47.364;8.796;2023-08-12T03:07:15;17.60;99.90
17148;DHT22;8689;47.364;8.796;2023-08-12T03:09:46;17.60;99.90
17148;DHT22;8689;47.364;8.796;2023-08-12T03:12:13;17.60;99.90
17148;DHT22;8689;47.364;8.796;2023-08-12T03:14:41;17.50;99.90
17148;DHT22;8689;47.364;8.796;2023-08-12T03:17:08;17.50;99.90
17148;DHT22;8689;47.364;8.796;2023-08-12T03:19:36;17.50;99.90
17148;DHT22;8689;47.364;8.796;2023-08-12T03:22:05;17.50;99.90
17148;DHT22;8689;47.364;8.796;2023-08-12T03:24:33;17.40;99.90
17148;DHT22;8689;47.364;8.796;2023-08-12T03:27:00;17.50;99.90
17148;DHT22;8689;47.364;8.796;2023-08-12T03:29:28;17.40;99.90
17148;DHT22;8689;47.364;8.796;2023-08-12T03:31:55;17.40;99.90
17148;DHT22;8689;47.364;8.796;2023-08-12T03:34:23;17.30;99.90
17148;DHT22;8689;47.364;8.796;2023-08-12T03:36:50;17.30;99.90
17148;DHT22;8689;47.364;8.796;2023-08-12T03:39:19;17.30;99.90
17148;DHT22;8689;47.364;8.796;2023-08-12T03:41:46;17.30;99.90
17148;DHT22;8689;47.364;8.796;2023-08-12T03:44:15;17.30;99.90
17148;DHT22;8689;47.364;8.796;2023-08-12T03:46:43;17.40;99.90
17148;DHT22;8689;47.364;8.796;2023-08-12T03:49:10;17.40;99.90
17148;DHT22;8689;47.364;8.796;2023-08-12T03:51:38;17.40;99.90
17148;DHT22;8689;47.364;8.796;2023-08-12T03:54:06;17.30;99.90
17148;DHT22;8689;47.364;8.796;2023-08-12T03:56:35;17.30;99.90
17148;DHT22;8689;47.364;8.796;2023-08-12T03:59:03;17.40;99.90
17148;DHT22;8689;47.364;8.796;2023-08-12T04:01:30;17.40;99.90
17148;DHT22;8689;47.364;8.796;2023-08-12T04:03:58;17.40;99.90
17148;DHT22;8689;47.364;8.796;2023-08-12T04:06:25;17.40;99.90
17148;DHT22;8689;47.364;8.796;2023-08-12T04:08:53;17.40;99.90
17148;DHT22;8689;47.364;8.796;2023-08-12T04:11:20;17.40;99.90
17148;DHT22;8689;47.364;8.796;2023-08-12T04:13:49;17.50;99.90
17148;DHT22;8689;47.364;8.796;2023-08-12T04:16:17;17.50;99.90
17148;DHT22;8689;47.364;8.796;2023-08-12T04:18:44;17.60;99.90
17148;DHT22;8689;47.364;8.796;2023-08-12T04:21:11;17.60;99.90
17148;DHT22;8689;47.364;8.796;2023-08-12T04:23:38;17.60;99.90
17148;DHT22;8689;47.364;8.796;2023-08-12T04:26:05;17.60;99.90
17148;DHT22;8689;47.364;8.796;2023-08-12T04:28:33;17.50;99.90
17148;DHT22;8689;47.364;8.796;2023-08-12T04:31:06;17.60;99.90
17148;DHT22;8689;47.364;8.796;2023-08-12T04:33:34;17.70;99.90
17148;DHT22;8689;47.364;8.796;2023-08-12T04:36:01;17.80;99.90
17148;DHT22;8689;47.364;8.796;2023-08-12T04:38:28;17.90;99.90
17148;DHT22;8689;47.364;8.796;2023-08-12T04:40:57;18.00;99.90
17148;DHT22;8689;47.364;8.796;2023-08-12T04:43:24;18.00;99.90
17148;DHT22;8689;47.364;8.796;2023-08-12T04:45:52;18.00;99.90
17148;DHT22;8689;47.364;8.796;2023-08-12T04:48:21;18.10;99.90
17148;DHT22;8689;47.364;8.796;2023-08-12T04:50:48;18.20;99.90
17148;DHT22;8689;47.364;8.796;2023-08-12T04:53:16;18.30;99.90
17148;DHT22;8689;47.364;8.796;2023-08-12T04:55:43;18.30;99.90
17148;DHT22;8689;47.364;8.796;2023-08-12T04:58:10;18.30;99.90
17148;DHT22;8689;47.364;8.796;2023-08-12T05:00:37;18.30;99.90
17148;DHT22;8689;47.364;8.796;2023-08-12T05:03:04;18.30;99.90
17148;DHT22;8689;47.364;8.796;2023-08-12T05:05:34;18.30;99.90
17148;DHT22;8689;47.364;8.796;2023-08-12T05:08:02;18.50;99.90
17148;DHT22;8689;47.364;8.796;2023-08-12T05:10:29;18.50;99.90
17148;DHT22;8689;47.364;8.796;2023-08-12T05:12:57;18.60;99.90
17148;DHT22;8689;47.364;8.796;2023-08-12T05:15:25;18.70;99.90
17148;DHT22;8689;47.364;8.796;2023-08-12T05:17:52;18.80;99.90
17148;DHT22;8689;47.364;8.796;2023-08-12T05:20:20;18.80;99.90
17148;DHT22;8689;47.364;8.796;2023-08-12T05:22:49;18.80;99.90
17148;DHT22;8689;47.364;8.796;2023-08-12T05:25:16;18.80;99.90
17148;DHT22;8689;47.364;8.796;2023-08-12T05:27:43;18.80;99.90
17148;DHT22;8689;47.364;8.796;2023-08-12T05:30:11;18.90;99.90
17148;DHT22;8689;47.364;8.796;2023-08-12T05:32:39;19.00;99.90
17148;DHT22;8689;47.364;8.796;2023-08-12T05:35:06;19.10;99.90
17148;DHT22;8689;47.364;8.796;2023-08-12T05:37:33;19.20;99.90
17148;DHT22;8689;47.364;8.796;2023-08-12T05:40:03;19.30;99.90
17148;DHT22;8689;47.364;8.796;2023-08-12T05:42:33;19.50;99.90
17148;DHT22;8689;47.364;8.796;2023-08-12T05:45:00;19.60;99.90
17148;DHT22;8689;47.364;8.796;2023-08-12T05:47:27;19.70;99.90
17148;DHT22;8689;47.364;8.796;2023-08-12T05:49:54;19.80;99.90
17148;DHT22;8689;47.364;8.796;2023-08-12T05:52:21;19.80;99.90
17148;DHT22;8689;47.364;8.796;2023-08-12T05:54:48;19.90;99.90
17148;DHT22;8689;47.364;8.796;2023-08-12T05:57:17;20.00;99.90
17148;DHT22;8689;47.364;8.796;2023-08-12T05:59:43;20.10;99.90
17148;DHT22;8689;47.364;8.796;2023-08-12T06:02:11;20.20;99.90
17148;DHT22;8689;47.364;8.796;2023-08-12T06:04:37;20.30;99.90
17148;DHT22;8689;47.364;8.796;2023-08-12T06:07:04;20.50;99.90
17148;DHT22;8689;47.364;8.796;2023-08-12T06:09:31;20.70;99.90
17148;DHT22;8689;47.364;8.796;2023-08-12T06:11:58;20.90;99.90
17148;DHT22;8689;47.364;8.796;2023-08-12T06:14:27;21.00;99.90
17148;DHT22;8689;47.364;8.796;2023-08-12T06:16:53;21.10;99.90
17148;DHT22;8689;47.364;8.796;2023-08-12T06:19:20;21.10;99.90
17148;DHT22;8689;47.364;8.796;2023-08-12T06:21:47;21.20;99.90
17148;DHT22;8689;47.364;8.796;2023-08-12T06:24:14;21.30;99.90
17148;DHT22;8689;47.364;8.796;2023-08-12T06:26:41;21.40;99.90
17148;DHT22;8689;47.364;8.796;2023-08-12T06:29:08;21.60;99.90
17148;DHT22;8689;47.364;8.796;2023-08-12T06:31:37;21.70;99.90
17148;DHT22;8689;47.364;8.796;2023-08-12T06:34:04;21.90;99.90
17148;DHT22;8689;47.364;8.796;2023-08-12T06:36:31;22.10;99.90
17148;DHT22;8689;47.364;8.796;2023-08-12T06:38:58;22.10;99.90
17148;DHT22;8689;47.364;8.796;2023-08-12T06:41:25;22.00;99.90
17148;DHT22;8689;47.364;8.796;2023-08-12T06:43:52;21.80;99.90
17148;DHT22;8689;47.364;8.796;2023-08-12T06:46:19;21.70;99.90
17148;DHT22;8689;47.364;8.796;2023-08-12T06:48:47;21.80;99.90
17148;DHT22;8689;47.364;8.796;2023-08-12T06:51:14;22.20;99.90
17148;DHT22;8689;47.364;8.796;2023-08-12T06:53:42;22.80;99.90
17148;DHT22;8689;47.364;8.796;2023-08-12T06:56:09;23.50;99.90
17148;DHT22;8689;47.364;8.796;2023-08-12T06:58:35;24.00;99.90
17148;DHT22;8689;47.364;8.796;2023-08-12T07:01:02;24.30;99.90
17148;DHT22;8689;47.364;8.796;2023-08-12T07:03:29;24.40;99.90
17148;DHT22;8689;47.364;8.796;2023-08-12T07:05:58;24.30;99.90
17148;DHT22;8689;47.364;8.796;2023-08-12T07:08:24;24.20;99.90
17148;DHT22;8689;47.364;8.796;2023-08-12T07:10:52;24.10;99.90
17148;DHT22;8689;47.364;8.796;2023-08-12T07:13:19;23.90;99.90
17148;DHT22;8689;47.364;8.796;2023-08-12T07:15:48;23.80;99.90
17148;DHT22;8689;47.364;8.796;2023-08-12T07:18:16;23.70;99.90
17148;DHT22;8689;47.364;8.796;2023-08-12T07:20:42;23.80;99.90
17148;DHT22;8689;47.364;8.796;2023-08-12T07:23:11;24.10;99.90
17148;DHT22;8689;47.364;8.796;2023-08-12T07:25:38;24.60;99.90
17148;DHT22;8689;47.364;8.796;2023-08-12T07:28:05;25.20;99.30
17148;DHT22;8689;47.364;8.796;2023-08-12T07:30:34;25.80;95.80
17148;DHT22;8689;47.364;8.796;2023-08-12T07:33:01;26.00;94.90
17148;DHT22;8689;47.364;8.796;2023-08-12T07:35:30;26.00;94.90
17148;DHT22;8689;47.364;8.796;2023-08-12T07:37:57;25.90;94.50
17148;DHT22;8689;47.364;8.796;2023-08-12T07:40:29;25.70;94.10
17148;DHT22;8689;47.364;8.796;2023-08-12T07:42:57;25.50;93.70
17148;DHT22;8689;47.364;8.796;2023-08-12T07:45:25;25.40;94.90
17148;DHT22;8689;47.364;8.796;2023-08-12T07:47:52;25.50;93.70
17148;DHT22;8689;47.364;8.796;2023-08-12T07:50:19;25.50;93.60
17148;DHT22;8689;47.364;8.796;2023-08-12T07:52:46;25.80;93.20
17148;DHT22;8689;47.364;8.796;2023-08-12T07:55:13;26.00;92.30
17148;DHT22;8689;47.364;8.796;2023-08-12T07:57:42;26.40;91.30
17148;DHT22;8689;47.364;8.796;2023-08-12T08:00:10;26.70;90.40
17148;DHT22;8689;47.364;8.796;2023-08-12T08:02:40;26.70;90.40
17148;DHT22;8689;47.364;8.796;2023-08-12T08:05:07;26.60;90.50
17148;DHT22;8689;47.364;8.796;2023-08-12T08:07:35;26.50;91.40
17148;DHT22;8689;47.364;8.796;2023-08-12T08:10:02;26.50;92.20
17148;DHT22;8689;47.364;8.796;2023-08-12T08:12:29;26.20;93.20
17148;DHT22;8689;47.364;8.796;2023-08-12T08:15:00;26.00;94.70
17148;DHT22;8689;47.364;8.796;2023-08-12T08:17:28;25.90;95.20
17148;DHT22;8689;47.364;8.796;2023-08-12T08:19:55;25.80;95.30
17148;DHT22;8689;47.364;8.796;2023-08-12T08:22:22;25.80;94.30
17148;DHT22;8689;47.364;8.796;2023-08-12T08:24:50;25.80;94.80
17148;DHT22;8689;47.364;8.796;2023-08-12T08:27:17;25.70;94.90
17148;DHT22;8689;47.364;8.796;2023-08-12T08:29:43;25.60;94.20
17148;DHT22;8689;47.364;8.796;2023-08-12T08:32:12;25.40;93.20
17148;DHT22;8689;47.364;8.796;2023-08-12T08:34:39;25.30;93.50
17148;DHT22;8689;47.364;8.796;2023-08-12T08:37:05;25.30;95.50
17148;DHT22;8689;47.364;8.796;2023-08-12T08:39:33;25.40;95.30
17148;DHT22;8689;47.364;8.796;2023-08-12T08:42:00;26.20;97.80
17148;DHT22;8689;47.364;8.796;2023-08-12T08:44:30;27.20;94.80
17148;DHT22;8689;47.364;8.796;2023-08-12T08:46:58;27.90;90.50
17148;DHT22;8689;47.364;8.796;2023-08-12T08:49:28;28.70;85.50
17148;DHT22;8689;47.364;8.796;2023-08-12T08:51:56;29.10;80.40
17148;DHT22;8689;47.364;8.796;2023-08-12T08:54:29;29.00;79.30
17148;DHT22;8689;47.364;8.796;2023-08-12T08:56:56;28.80;76.80
17148;DHT22;8689;47.364;8.796;2023-08-12T08:59:23;28.60;77.70
17148;DHT22;8689;47.364;8.796;2023-08-12T09:01:51;28.40;76.90
17148;DHT22;8689;47.364;8.796;2023-08-12T09:04:20;28.20;77.40
17148;DHT22;8689;47.364;8.796;2023-08-12T09:06:52;28.20;79.20
17148;DHT22;8689;47.364;8.796;2023-08-12T09:09:20;28.10;78.30
17148;DHT22;8689;47.364;8.796;2023-08-12T09:11:49;28.00;78.20
17148;DHT22;8689;47.364;8.796;2023-08-12T09:14:18;28.00;80.20
17148;DHT22;8689;47.364;8.796;2023-08-12T09:16:45;28.00;78.50
17148;DHT22;8689;47.364;8.796;2023-08-12T09:19:12;28.20;78.40
17148;DHT22;8689;47.364;8.796;2023-08-12T09:21:39;28.40;75.90
17148;DHT22;8689;47.364;8.796;2023-08-12T09:24:08;28.50;76.50
17148;DHT22;8689;47.364;8.796;2023-08-12T09:26:35;28.60;75.00
17148;DHT22;8689;47.364;8.796;2023-08-12T09:29:03;28.70;76.30
17148;DHT22;8689;47.364;8.796;2023-08-12T09:31:30;28.80;76.10
17148;DHT22;8689;47.364;8.796;2023-08-12T09:34:04;29.10;77.00
17148;DHT22;8689;47.364;8.796;2023-08-12T09:36:32;29.30;75.10
17148;DHT22;8689;47.364;8.796;2023-08-12T09:38:59;29.80;73.90
17148;DHT22;8689;47.364;8.796;2023-08-12T09:41:28;30.30;71.10
17148;DHT22;8689;47.364;8.796;2023-08-12T09:43:56;30.40;71.90
17148;DHT22;8689;47.364;8.796;2023-08-12T09:46:26;30.10;69.10
17148;DHT22;8689;47.364;8.796;2023-08-12T09:48:53;29.70;70.20
17148;DHT22;8689;47.364;8.796;2023-08-12T09:51:20;29.30;69.30
17148;DHT22;8689;47.364;8.796;2023-08-12T09:53:48;28.80;72.60
17148;DHT22;8689;47.364;8.796;2023-08-12T09:56:18;28.20;74.10
17148;DHT22;8689;47.364;8.796;2023-08-12T09:58:49;27.50;78.70
17148;DHT22;8689;47.364;8.796;2023-08-12T10:01:18;26.80;81.30
17148;DHT22;8689;47.364;8.796;2023-08-12T10:03:48;26.10;86.40
17148;DHT22;8689;47.364;8.796;2023-08-12T10:06:16;25.50;90.50
17148;DHT22;8689;47.364;8.796;2023-08-12T10:08:44;25.00;90.30
17148;DHT22;8689;47.364;8.796;2023-08-12T10:11:12;24.30;93.00
17148;DHT22;8689;47.364;8.796;2023-08-12T10:13:40;23.70;95.20
17148;DHT22;8689;47.364;8.796;2023-08-12T10:16:09;23.10;97.00
17148;DHT22;8689;47.364;8.796;2023-08-12T10:18:38;22.50;98.20
17148;DHT22;8689;47.364;8.796;2023-08-12T10:21:09;22.00;99.90
17148;DHT22;8689;47.364;8.796;2023-08-12T10:23:36;21.80;99.90
17148;DHT22;8689;47.364;8.796;2023-08-12T10:26:05;21.60;99.90
17148;DHT22;8689;47.364;8.796;2023-08-12T10:28:36;21.60;99.90
17148;DHT22;8689;47.364;8.796;2023-08-12T10:31:30;21.60;99.90
17148;DHT22;8689;47.364;8.796;2023-08-12T10:33:58;21.80;99.90
17148;DHT22;8689;47.364;8.796;2023-08-12T10:36:26;22.10;99.90
17148;DHT22;8689;47.364;8.796;2023-08-12T10:38:53;22.30;99.90
17148;DHT22;8689;47.364;8.796;2023-08-12T10:41:22;22.40;99.90
17148;DHT22;8689;47.364;8.796;2023-08-12T10:43:53;22.40;99.90
17148;DHT22;8689;47.364;8.796;2023-08-12T10:46:28;22.50;99.90
17148;DHT22;8689;47.364;8.796;2023-08-12T10:49:02;22.50;99.90
17148;DHT22;8689;47.364;8.796;2023-08-12T10:51:44;22.70;99.90
17148;DHT22;8689;47.364;8.796;2023-08-12T10:54:16;23.10;99.90
17148;DHT22;8689;47.364;8.796;2023-08-12T10:57:05;23.90;99.90
17148;DHT22;8689;47.364;8.796;2023-08-12T10:59:52;24.40;99.90
17148;DHT22;8689;47.364;8.796;2023-08-12T11:02:26;24.60;99.90
17148;DHT22;8689;47.364;8.796;2023-08-12T11:04:55;24.90;99.90
17148;DHT22;8689;47.364;8.796;2023-08-12T11:07:31;25.10;99.90
17148;DHT22;8689;47.364;8.796;2023-08-12T11:10:03;25.00;99.90
17148;DHT22;8689;47.364;8.796;2023-08-12T11:12:33;24.80;99.90
17148;DHT22;8689;47.364;8.796;2023-08-12T11:15:06;24.40;99.90
17148;DHT22;8689;47.364;8.796;2023-08-12T11:17:34;24.10;99.90
17148;DHT22;8689;47.364;8.796;2023-08-12T11:20:04;23.80;99.90
17148;DHT22;8689;47.364;8.796;2023-08-12T11:22:35;23.50;99.90
17148;DHT22;8689;47.364;8.796;2023-08-12T11:25:04;23.20;99.90
17148;DHT22;8689;47.364;8.796;2023-08-12T11:27:41;22.90;99.90
17148;DHT22;8689;47.364;8.796;2023-08-12T11:30:11;22.70;99.90
17148;DHT22;8689;47.364;8.796;2023-08-12T11:32:41;22.50;99.90
17148;DHT22;8689;47.364;8.796;2023-08-12T11:35:10;22.30;99.90
17148;DHT22;8689;47.364;8.796;2023-08-12T11:37:38;22.10;99.90
17148;DHT22;8689;47.364;8.796;2023-08-12T11:40:07;22.00;99.90
17148;DHT22;8689;47.364;8.796;2023-08-12T11:42:35;22.00;99.90
17148;DHT22;8689;47.364;8.796;2023-08-12T11:45:03;22.10;99.90
17148;DHT22;8689;47.364;8.796;2023-08-12T11:47:29;22.30;99.90
17148;DHT22;8689;47.364;8.796;2023-08-12T11:49:57;22.50;99.90
17148;DHT22;8689;47.364;8.796;2023-08-12T11:52:25;22.70;99.90
17148;DHT22;8689;47.364;8.796;2023-08-12T11:54:53;22.90;99.90
17148;DHT22;8689;47.364;8.796;2023-08-12T11:57:22;23.10;99.90
17148;DHT22;8689;47.364;8.796;2023-08-12T11:59:49;23.30;99.90
17148;DHT22;8689;47.364;8.796;2023-08-12T12:02:16;23.70;99.90
17148;DHT22;8689;47.364;8.796;2023-08-12T12:04:43;24.10;99.90
17148;DHT22;8689;47.364;8.796;2023-08-12T12:07:20;24.60;99.90
17148;DHT22;8689;47.364;8.796;2023-08-12T12:09:50;25.30;99.90
17148;DHT22;8689;47.364;8.796;2023-08-12T12:12:17;25.70;99.90
17148;DHT22;8689;47.364;8.796;2023-08-12T12:14:46;25.90;99.90
17148;DHT22;8689;47.364;8.796;2023-08-12T12:17:15;26.10;99.90
17148;DHT22;8689;47.364;8.796;2023-08-12T12:19:42;26.20;99.90
17148;DHT22;8689;47.364;8.796;2023-08-12T12:22:10;26.40;99.90
17148;DHT22;8689;47.364;8.796;2023-08-12T12:24:45;26.60;99.90
17148;DHT22;8689;47.364;8.796;2023-08-12T12:27:14;27.10;99.70
17148;DHT22;8689;47.364;8.796;2023-08-12T12:29:42;27.30;98.40
17148;DHT22;8689;47.364;8.796;2023-08-12T12:32:09;27.70;95.00
17148;DHT22;8689;47.364;8.796;2023-08-12T12:34:38;28.20;87.50
17148;DHT22;8689;47.364;8.796;2023-08-12T12:37:05;28.70;81.90
17148;DHT22;8689;47.364;8.796;2023-08-12T12:39:32;28.80;80.60
17148;DHT22;8689;47.364;8.796;2023-08-12T12:41:59;28.80;77.40
17148;DHT22;8689;47.364;8.796;2023-08-12T12:44:28;29.10;78.30
17148;DHT22;8689;47.364;8.796;2023-08-12T12:46:55;29.20;76.70
17148;DHT22;8689;47.364;8.796;2023-08-12T12:49:22;29.50;77.70
17148;DHT22;8689;47.364;8.796;2023-08-12T12:51:50;30.00;72.70
17148;DHT22;8689;47.364;8.796;2023-08-12T12:54:17;30.40;66.90
17148;DHT22;8689;47.364;8.796;2023-08-12T12:56:44;30.80;66.70
17148;DHT22;8689;47.364;8.796;2023-08-12T12:59:11;31.10;66.50
17148;DHT22;8689;47.364;8.796;2023-08-12T13:01:41;31.40;65.80
17148;DHT22;8689;47.364;8.796;2023-08-12T13:04:09;31.80;61.90
17148;DHT22;8689;47.364;8.796;2023-08-12T13:06:36;32.00;61.60
17148;DHT22;8689;47.364;8.796;2023-08-12T13:09:03;32.30;59.20
17148;DHT22;8689;47.364;8.796;2023-08-12T13:11:32;32.40;58.70
17148;DHT22;8689;47.364;8.796;2023-08-12T13:14:00;32.40;57.00
17148;DHT22;8689;47.364;8.796;2023-08-12T13:16:28;32.70;57.00
17148;DHT22;8689;47.364;8.796;2023-08-12T13:18:57;32.80;55.40
17148;DHT22;8689;47.364;8.796;2023-08-12T13:21:25;32.70;56.70
17148;DHT22;8689;47.364;8.796;2023-08-12T13:23:55;32.70;56.70
17148;DHT22;8689;47.364;8.796;2023-08-12T13:26:22;32.80;55.80
17148;DHT22;8689;47.364;8.796;2023-08-12T13:28:49;33.10;56.50
17148;DHT22;8689;47.364;8.796;2023-08-12T13:31:17;33.40;54.50
17148;DHT22;8689;47.364;8.796;2023-08-12T13:33:44;33.80;52.60
17148;DHT22;8689;47.364;8.796;2023-08-12T13:36:15;34.00;53.40
17148;DHT22;8689;47.364;8.796;2023-08-12T13:38:42;34.20;52.50
17148;DHT22;8689;47.364;8.796;2023-08-12T13:41:09;34.20;52.60
17148;DHT22;8689;47.364;8.796;2023-08-12T13:43:36;34.30;51.60
17148;DHT22;8689;47.364;8.796;2023-08-12T13:46:03;34.60;51.90
17148;DHT22;8689;47.364;8.796;2023-08-12T13:48:32;34.90;51.00
17148;DHT22;8689;47.364;8.796;2023-08-12T13:51:00;35.10;49.10
17148;DHT22;8689;47.364;8.796;2023-08-12T13:53:30;35.20;49.50
17148;DHT22;8689;47.364;8.796;2023-08-12T13:55:57;35.40;49.40
17148;DHT22;8689;47.364;8.796;2023-08-12T13:58:25;35.60;48.20
17148;DHT22;8689;47.364;8.796;2023-08-12T14:00:52;35.50;48.10
17148;DHT22;8689;47.364;8.796;2023-08-12T14:03:20;35.40;49.90
17148;DHT22;8689;47.364;8.796;2023-08-12T14:05:47;35.50;47.60
17148;DHT22;8689;47.364;8.796;2023-08-12T14:08:15;35.60;48.20
17148;DHT22;8689;47.364;8.796;2023-08-12T14:10:45;35.60;47.10
17148;DHT22;8689;47.364;8.796;2023-08-12T14:13:12;35.70;49.10
17148;DHT22;8689;47.364;8.796;2023-08-12T14:15:41;36.00;47.60
17148;DHT22;8689;47.364;8.796;2023-08-12T14:18:08;36.30;47.70
17148;DHT22;8689;47.364;8.796;2023-08-12T14:20:35;36.40;47.80
17148;DHT22;8689;47.364;8.796;2023-08-12T14:23:02;36.00;48.90
17148;DHT22;8689;47.364;8.796;2023-08-12T14:25:30;35.30;48.30
17148;DHT22;8689;47.364;8.796;2023-08-12T14:27:58;34.70;50.00
17148;DHT22;8689;47.364;8.796;2023-08-12T14:30:25;34.00;51.50
17148;DHT22;8689;47.364;8.796;2023-08-12T14:32:54;33.50;52.30
17148;DHT22;8689;47.364;8.796;2023-08-12T14:35:22;33.20;52.40
17148;DHT22;8689;47.364;8.796;2023-08-12T14:37:49;33.60;52.60
17148;DHT22;8689;47.364;8.796;2023-08-12T14:40:16;34.00;52.70
17148;DHT22;8689;47.364;8.796;2023-08-12T14:42:44;34.10;51.20
17148;DHT22;8689;47.364;8.796;2023-08-12T14:45:14;33.80;51.30
17148;DHT22;8689;47.364;8.796;2023-08-12T14:47:41;33.40;52.80
17148;DHT22;8689;47.364;8.796;2023-08-12T14:50:09;32.90;53.40
17148;DHT22;8689;47.364;8.796;2023-08-12T14:52:36;32.40;55.20
17148;DHT22;8689;47.364;8.796;2023-08-12T14:55:08;31.70;55.50
17148;DHT22;8689;47.364;8.796;2023-08-12T14:57:37;31.10;56.60
17148;DHT22;8689;47.364;8.796;2023-08-12T15:00:09;30.60;58.60
17148;DHT22;8689;47.364;8.796;2023-08-12T15:02:39;30.00;60.60
17148;DHT22;8689;47.364;8.796;2023-08-12T15:05:06;29.60;63.10
17148;DHT22;8689;47.364;8.796;2023-08-12T15:07:34;29.40;63.40
17148;DHT22;8689;47.364;8.796;2023-08-12T15:10:01;29.30;64.40
17148;DHT22;8689;47.364;8.796;2023-08-12T15:12:28;29.20;66.30
17148;DHT22;8689;47.364;8.796;2023-08-12T15:14:55;29.00;66.70
17148;DHT22;8689;47.364;8.796;2023-08-12T15:17:22;29.10;65.80
17148;DHT22;8689;47.364;8.796;2023-08-12T15:19:51;29.70;63.40
17148;DHT22;8689;47.364;8.796;2023-08-12T15:22:18;30.30;62.30
17148;DHT22;8689;47.364;8.796;2023-08-12T15:24:45;30.60;62.50
17148;DHT22;8689;47.364;8.796;2023-08-12T15:27:12;30.20;63.20
17148;DHT22;8689;47.364;8.796;2023-08-12T15:29:39;29.90;63.80
17148;DHT22;8689;47.364;8.796;2023-08-12T15:32:06;29.70;64.90
17148;DHT22;8689;47.364;8.796;2023-08-12T15:34:33;29.50;65.90
17148;DHT22;8689;47.364;8.796;2023-08-12T15:37:02;29.30;65.60
17148;DHT22;8689;47.364;8.796;2023-08-12T15:39:29;29.10;67.60
17148;DHT22;8689;47.364;8.796;2023-08-12T15:41:56;28.90;67.80
17148;DHT22;8689;47.364;8.796;2023-08-12T15:44:24;28.70;68.80
17148;DHT22;8689;47.364;8.796;2023-08-12T15:46:51;28.50;70.30
17148;DHT22;8689;47.364;8.796;2023-08-12T15:49:20;28.50;68.50
17148;DHT22;8689;47.364;8.796;2023-08-12T15:51:47;28.80;68.70